This is the latest recevied weather packets stored in our database for station/object OE7DRT-13. If no packets are shown the sender has not sent any weather packets the latest 10 day(s).
| Time | Temp. | Humidity | Pressure | Rain* | Wind** | Luminosity | Snow |
|---|---|---|---|---|---|---|---|
| 1778221230 | 3.89° C | 92% | 1016.6 hPa | 0 mm | - | - | - |
| 1778219440 | 3.33° C | 93% | 1016.7 hPa | 0 mm | - | - | - |
| 1778218253 | 3.33° C | 93% | 1016.5 hPa | 0 mm | - | - | - |
| 1778217629 | 3.33° C | 92% | 1016.5 hPa | 0 mm | - | - | - |
| 1778214331 | 3.89° C | 91% | 1016.1 hPa | 0 mm | - | - | - |
| 1778213124 | 3.89° C | 91% | 1016.1 hPa | 0 mm | - | - | - |
| 1778212521 | 4.44° C | 89% | 1016.1 hPa | 0 mm | - | - | - |
| 1778211636 | 3.89° C | 92% | 1016.1 hPa | 0 mm | - | - | - |
| 1778211033 | 3.89° C | 92% | 1016.1 hPa | 0 mm | - | - | - |
| 1778208640 | 5° C | 90% | 1016.1 hPa | 0 mm | - | - | - |
| 1778207131 | 4.44° C | 91% | 1016.2 hPa | 0 mm | - | - | - |
| 1778206528 | 4.44° C | 91% | 1016 hPa | 0 mm | - | - | - |
| 1778205019 | 5° C | 89% | 1016.1 hPa | 0 mm | - | - | - |
| 1778204175 | 5° C | 88% | 1016.1 hPa | 0 mm | - | - | - |
| 1778203229 | 5° C | 89% | 1016.1 hPa | 0 mm | - | - | - |
| 1778202043 | 5.56° C | 87% | 1016 hPa | 0 mm | - | - | - |
| 1778201721 | 5.56° C | 85% | 1016.1 hPa | 0 mm | - | - | - |
| 1778199931 | 5.56° C | 90% | 1016.1 hPa | 0 mm | - | - | - |
| 1778198747 | 5.56° C | 89% | 1016.1 hPa | 0 mm | - | - | - |
| 1778197217 | 6.11° C | 89% | 1016.4 hPa | 0 mm | - | - | - |
| 1778196934 | 6.11° C | 89% | 1016.3 hPa | 0 mm | - | - | - |
| 1778196331 | 6.11° C | 89% | 1016.4 hPa | 0 mm | - | - | - |
| 1778195426 | 6.11° C | 89% | 1016.5 hPa | 0 mm | - | - | - |
| 1778195164 | 6.67° C | 89% | 1016.4 hPa | 0 mm | - | - | - |
| 1778194822 | 6.67° C | 88% | 1016.5 hPa | 0 mm | - | - | - |
* Rain latest hour (hover to see other rain measurements)
** Current wind speed in m/s (hover to see current wind gust speed)